Pagrindinis puslapis
METAR-TAF:

METAR-TAF

Oro uostai :

Wadi ad-Dawasir, Saudo Arabija

platuma: 20-30N, ilguma: 045-12E, Aukštis: 624 m

Dabartinis oras

Ataskaita buvo paskelbta 1 valandą ir 12 minutes, ne 22:00 UTC
Vėjas 4 kt iš Vakarų/Pietvakarių
Temperatūra 30°C
Drėgmė 43%
Slėgis 1009 hPa
Matomumas 10 km arba daugiau
nėra debesų žemiau 1500 m ir nėra kamuolinių lietaus debesų

METAR: OEWD 052200Z 25004KT CAVOK 30/16 Q1009 NOSIG

Laikas: 02:12 (23:12 UTC)

Prognozė

Ataskaita buvo paskelbta 12 valandos ir 12 minutes, ne 11:00 UTC
Prognozė galioja nuo 05 metu 12 UTC su 06 metu 18 UTC
Vėjas 10 kt iš Rytų/Pietryčių
Matomumas: 6000 m
Mažai debesys ne aukštis 4000 ft
Išsisklaidę debesys ne aukštis 10000 ft
Tapsmas
nuo 05 metu 18 UTC su 05 metu 20 UTC
Vėjas 3 kt nuo kintamojo kryptimis

TAF: OEWD 051100Z 0512/0618 12010KT 6000 FEW040 SCT100 BECMG 0518/0520 VRB03KT

Orai ataskaitas ir orų prognozės (METAR, TAF).

turimą stotys yra geltonos ir raudonos taškus žemėlapyje.

Perkelti pele per norėdami pamatyti stoties vardą.

Tada spustelėkite, norėdami matyti oro stebėjimo ir prognozės.

Norėdami pakeisti žemėlapį: spustelėkite ant žalios mygtukų su juodo kryžiaus žemyn,; žalią mygtuką su brūkšneliu, jei norite nutolinti; arba žalių rodyklių gretimoms žemėlapius.


METAR-TAF: